createdAt,value
2022-08-25T00:02:56.637Z,6.25
2022-08-25T00:06:00.480Z,6.47
2022-08-25T00:09:02.612Z,6.93
2022-08-25T00:12:05.717Z,6.53
2022-08-25T00:15:09.889Z,6.95
2022-08-25T00:18:19.880Z,6.95
2022-08-25T00:21:22.337Z,6.95
2022-08-25T00:24:25.134Z,7.05
2022-08-25T00:27:27.655Z,6.68
2022-08-25T00:30:30.146Z,7.20
2022-08-25T00:33:32.580Z,6.40
2022-08-25T00:36:34.998Z,6.70
2022-08-25T00:39:38.765Z,6.63
2022-08-25T00:42:41.464Z,6.88
2022-08-25T00:45:43.376Z,6.82
2022-08-25T00:48:51.004Z,7.13
2022-08-25T00:52:02.769Z,6.80
2022-08-25T00:55:23.752Z,7.00
2022-08-25T00:58:31.157Z,6.43
2022-08-25T01:01:33.196Z,6.93
2022-08-25T01:04:35.319Z,7.00
2022-08-25T01:07:38.229Z,7.00
2022-08-25T01:10:44.311Z,7.00
2022-08-25T01:13:54.358Z,6.93
2022-08-25T01:16:58.246Z,6.65
2022-08-25T01:20:00.139Z,7.13
2022-08-25T01:23:02.226Z,7.15
2022-08-25T01:26:15.289Z,7.20
2022-08-25T01:29:25.541Z,7.00
2022-08-25T01:32:27.574Z,7.32
2022-08-25T01:35:29.690Z,6.90
2022-08-25T01:38:31.595Z,6.65
2022-08-25T01:41:43.125Z,7.25
2022-08-25T01:44:47.796Z,6.43
2022-08-25T01:47:52.873Z,7.00
2022-08-25T01:50:54.812Z,7.60
2022-08-25T01:53:56.824Z,6.63
2022-08-25T01:56:59.476Z,7.03
2022-08-25T02:00:01.655Z,7.80
2022-08-25T02:03:18.776Z,7.05
2022-08-25T02:06:29.765Z,7.30
2022-08-25T02:09:33.228Z,6.88
2022-08-25T02:12:35.379Z,7.10
2022-08-25T02:15:45.259Z,7.22
2022-08-25T02:18:48.167Z,6.65
2022-08-25T02:21:51.237Z,6.80
2022-08-25T02:24:53.173Z,7.47
2022-08-25T02:27:55.073Z,7.40
2022-08-25T02:31:01.397Z,7.30
2022-08-25T02:34:04.246Z,7.05
2022-08-25T02:40:09.231Z,6.60
2022-08-25T02:43:11.268Z,7.00
2022-08-25T02:46:13.574Z,7.43
2022-08-25T02:49:16.113Z,7.35
2022-08-25T02:55:20.346Z,6.97
2022-08-25T03:01:29.072Z,7.88
2022-08-25T03:04:32.080Z,7.72
2022-08-25T03:07:35.634Z,7.72
2022-08-25T03:10:37.899Z,7.38
2022-08-25T03:13:40.662Z,7.60
2022-08-25T03:16:43.026Z,7.65
2022-08-25T03:19:48.401Z,7.43
2022-08-25T03:22:50.682Z,7.50
2022-08-25T03:26:13.707Z,8.13
2022-08-25T03:29:16.224Z,7.40
2022-08-25T03:32:18.509Z,7.32
2022-08-25T03:35:20.539Z,8.00
2022-08-25T03:38:26.643Z,7.45
2022-08-25T03:41:32.679Z,7.88
2022-08-25T03:44:34.697Z,7.80
2022-08-25T03:47:36.586Z,8.13
2022-08-25T03:50:44.830Z,8.18
2022-08-25T03:53:54.033Z,7.88
2022-08-25T03:59:57.868Z,7.80
2022-08-25T04:02:59.850Z,7.55
2022-08-25T04:06:03.736Z,7.45
2022-08-25T04:09:06.631Z,7.65
2022-08-25T04:12:08.862Z,7.82
2022-08-25T04:15:11.327Z,7.90
2022-08-25T04:21:16.163Z,7.65
2022-08-25T04:24:18.481Z,7.80
2022-08-25T04:30:22.565Z,8.35
2022-08-25T04:33:24.537Z,8.00
2022-08-25T04:36:26.510Z,7.38
2022-08-25T04:39:28.778Z,6.93
2022-08-25T04:42:30.794Z,7.95
2022-08-25T04:45:37.301Z,7.20
2022-08-25T04:48:40.315Z,7.78
2022-08-25T04:51:42.871Z,6.82
2022-08-25T04:54:46.460Z,6.93
2022-08-25T04:57:48.699Z,7.15
2022-08-25T05:00:50.662Z,7.30
2022-08-25T05:03:56.710Z,7.57
2022-08-25T05:06:59.258Z,6.97
2022-08-25T05:10:01.160Z,6.75
2022-08-25T05:13:04.017Z,7.40
2022-08-25T05:16:06.625Z,6.78
2022-08-25T05:19:11.720Z,7.00
2022-08-25T05:22:13.641Z,6.40
2022-08-25T05:25:15.944Z,6.97
2022-08-25T05:31:22.509Z,6.28
2022-08-25T05:34:25.462Z,6.53
2022-08-25T05:37:27.544Z,7.22
2022-08-25T05:40:29.745Z,7.18
2022-08-25T05:46:34.030Z,5.90
2022-08-25T05:49:35.994Z,6.40
2022-08-25T05:52:39.079Z,5.85
2022-08-25T05:55:44.979Z,6.18
2022-08-25T05:58:47.271Z,6.10
2022-08-25T06:02:08.076Z,6.50
2022-08-25T06:05:16.668Z,8.48
2022-08-25T06:08:20.043Z,6.32
2022-08-25T06:11:22.039Z,6.57
2022-08-25T06:20:31.306Z,6.10
2022-08-25T06:23:33.196Z,5.72
2022-08-25T06:26:35.267Z,5.95
2022-08-25T06:29:38.291Z,5.65
2022-08-25T06:32:41.437Z,5.45
2022-08-25T06:35:47.491Z,5.28
2022-08-25T06:38:49.579Z,5.93
2022-08-25T06:41:56.807Z,6.07
2022-08-25T06:45:01.686Z,4.55
2022-08-25T06:48:03.706Z,7.90
2022-08-25T06:51:13.885Z,3.90
2022-08-25T06:54:16.368Z,6.57
2022-08-25T06:57:19.445Z,4.82
2022-08-25T07:00:21.506Z,6.32
2022-08-25T07:03:26.361Z,4.05
2022-08-25T07:09:38.589Z,4.38
2022-08-25T07:12:41.429Z,4.00
2022-08-25T07:15:44.390Z,4.10
2022-08-25T07:18:48.685Z,3.70
2022-08-25T07:21:53.030Z,3.40
2022-08-25T07:24:54.968Z,3.72
2022-08-25T07:27:59.021Z,3.67
2022-08-25T07:31:01.849Z,3.20
2022-08-25T07:34:22.851Z,3.67
2022-08-25T07:37:47.935Z,3.65
2022-08-25T07:43:58.947Z,4.35
2022-08-25T07:47:01.177Z,8.43
2022-08-25T07:53:25.968Z,3.05
2022-08-25T07:56:28.312Z,3.00
2022-08-25T07:59:39.460Z,3.22
2022-08-25T08:05:45.518Z,3.38
2022-08-25T08:08:49.867Z,3.10
2022-08-25T08:11:53.977Z,3.10
2022-08-25T08:15:10.468Z,3.15
2022-08-25T08:18:16.114Z,3.38
2022-08-25T08:21:23.399Z,3.67
2022-08-25T08:24:44.452Z,3.40
2022-08-25T08:30:53.686Z,3.10
2022-08-25T08:33:58.724Z,2.85
2022-08-25T08:37:01.699Z,2.80
2022-08-25T08:40:05.544Z,3.03
2022-08-25T08:43:18.072Z,3.20
2022-08-25T08:46:22.894Z,2.53
2022-08-25T08:49:46.741Z,2.88
2022-08-25T08:53:19.857Z,2.50
2022-08-25T08:56:30.956Z,2.55
2022-08-25T08:59:44.656Z,3.03
2022-08-25T09:02:59.685Z,2.65
2022-08-25T09:06:09.003Z,2.25
2022-08-25T09:09:21.128Z,2.40
2022-08-25T09:12:37.602Z,2.65
2022-08-25T09:16:20.333Z,2.75
2022-08-25T09:19:46.417Z,2.63
2022-08-25T09:23:13.122Z,2.50
2022-08-25T09:26:37.480Z,2.00
2022-08-25T09:30:10.544Z,3.20
2022-08-25T09:33:21.149Z,2.42
2022-08-25T09:36:24.764Z,2.20
2022-08-25T09:39:28.181Z,4.28
2022-08-25T09:42:49.721Z,2.50
2022-08-25T09:46:05.374Z,3.75
2022-08-25T09:49:16.998Z,2.30
2022-08-25T09:55:32.418Z,2.30
2022-08-25T09:58:34.876Z,2.63
2022-08-25T10:01:49.051Z,2.58
2022-08-25T10:04:52.663Z,3.05
2022-08-25T10:08:00.667Z,2.45
2022-08-25T10:11:09.023Z,2.53
2022-08-25T10:14:29.686Z,2.65
2022-08-25T10:17:33.423Z,2.25
2022-08-25T10:20:35.762Z,2.72
2022-08-25T10:23:56.186Z,2.70
2022-08-25T10:27:13.050Z,3.20
2022-08-25T10:30:34.454Z,3.28
2022-08-25T10:34:03.617Z,3.63
2022-08-25T10:37:09.238Z,3.10
2022-08-25T10:40:37.371Z,3.10
2022-08-25T10:44:04.479Z,3.38
2022-08-25T10:47:42.882Z,3.90
2022-08-25T10:50:49.010Z,3.30
2022-08-25T10:54:04.837Z,2.97
2022-08-25T10:57:39.929Z,2.80
2022-08-25T11:00:54.629Z,2.80
2022-08-25T11:04:21.633Z,2.42
2022-08-25T11:07:49.782Z,2.03
2022-08-25T11:11:04.105Z,2.67
2022-08-25T11:14:32.641Z,2.42
2022-08-25T11:18:06.114Z,2.83
2022-08-25T11:21:23.636Z,2.50
2022-08-25T11:28:27.066Z,3.50
2022-08-25T11:31:30.125Z,3.63
2022-08-25T11:34:35.359Z,4.88
2022-08-25T11:37:46.230Z,3.83
2022-08-25T11:41:11.365Z,2.78
2022-08-25T11:44:53.270Z,1.80
2022-08-25T11:48:25.022Z,2.20
2022-08-25T11:51:36.493Z,3.05
2022-08-25T11:54:48.658Z,5.22
2022-08-25T11:57:53.886Z,2.92
2022-08-25T12:00:58.732Z,2.22
2022-08-25T12:04:43.998Z,2.30
2022-08-25T12:08:08.491Z,2.70
2022-08-25T12:11:12.054Z,2.90
2022-08-25T12:14:38.493Z,2.60
2022-08-25T12:17:40.713Z,2.40
2022-08-25T12:20:57.955Z,2.92
2022-08-25T12:24:03.062Z,2.47
2022-08-25T12:28:02.394Z,4.82
2022-08-25T12:32:04.843Z,4.70
2022-08-25T12:35:31.113Z,5.28
2022-08-25T12:38:44.127Z,6.68
2022-08-25T12:41:59.844Z,8.00
2022-08-25T12:45:09.380Z,8.48
2022-08-25T12:48:31.762Z,8.52
2022-08-25T12:51:33.667Z,7.20
2022-08-25T12:54:43.890Z,5.30
2022-08-25T12:58:01.108Z,4.93
2022-08-25T13:01:35.861Z,3.92
2022-08-25T13:04:45.761Z,3.55
2022-08-25T13:08:44.794Z,3.13
2022-08-25T13:12:11.553Z,5.10
2022-08-25T13:15:25.164Z,5.38
2022-08-25T13:18:30.991Z,4.80
2022-08-25T13:21:43.067Z,3.90
2022-08-25T13:24:50.484Z,4.32
2022-08-25T13:27:58.837Z,3.60
2022-08-25T13:31:28.297Z,3.95
2022-08-25T13:34:37.158Z,2.75
2022-08-25T13:37:39.186Z,2.95
2022-08-25T13:40:41.981Z,3.00
2022-08-25T13:43:45.435Z,5.18
2022-08-25T13:46:48.640Z,6.70
2022-08-25T13:49:53.024Z,7.80
2022-08-25T13:53:14.160Z,8.20
2022-08-25T13:56:40.075Z,6.07
2022-08-25T13:59:44.172Z,7.05
2022-08-25T14:02:53.698Z,4.80
2022-08-25T14:06:15.894Z,5.50
2022-08-25T14:09:28.313Z,5.70
2022-08-25T14:12:44.818Z,5.55
2022-08-25T14:15:47.272Z,5.80
2022-08-25T14:18:55.011Z,5.88
2022-08-25T14:22:02.224Z,5.85
2022-08-25T14:25:07.020Z,6.50
2022-08-25T14:28:19.783Z,6.15
2022-08-25T14:31:28.030Z,4.78
2022-08-25T14:34:39.485Z,5.03
2022-08-25T14:37:44.796Z,4.72
2022-08-25T14:40:48.216Z,4.55
2022-08-25T14:43:50.570Z,5.40
2022-08-25T14:46:55.536Z,5.15
2022-08-25T14:49:58.386Z,5.22
2022-08-25T14:53:01.171Z,5.07
2022-08-25T14:56:06.900Z,5.90
2022-08-25T14:59:12.243Z,4.60
2022-08-25T15:02:19.933Z,4.80
2022-08-25T15:05:28.373Z,4.10
2022-08-25T15:08:49.247Z,4.90
2022-08-25T15:11:54.600Z,4.40
2022-08-25T15:14:57.631Z,4.28
2022-08-25T15:18:01.222Z,5.32
2022-08-25T15:21:03.666Z,3.88
2022-08-25T15:24:08.923Z,4.30
2022-08-25T15:27:13.595Z,3.42
2022-08-25T15:30:15.814Z,2.90
2022-08-25T15:33:19.397Z,4.75
2022-08-25T15:36:25.675Z,2.80
2022-08-25T15:39:28.175Z,3.00
2022-08-25T15:42:30.256Z,2.80
2022-08-25T15:45:32.965Z,2.72
2022-08-25T15:48:36.029Z,2.55
2022-08-25T15:51:38.386Z,3.10
2022-08-25T15:54:40.310Z,3.00
2022-08-25T15:57:43.997Z,5.82
2022-08-25T16:00:51.208Z,24.33
2022-08-25T16:03:58.536Z,18.70
2022-08-25T16:07:00.933Z,21.00
2022-08-25T16:10:04.519Z,23.48
2022-08-25T16:13:08.012Z,19.38
2022-08-25T16:16:10.891Z,25.40
2022-08-25T16:19:15.062Z,18.60
2022-08-25T16:22:17.468Z,13.05
2022-08-25T16:25:19.615Z,10.55
2022-08-25T16:28:24.434Z,8.38
2022-08-25T16:31:27.046Z,9.35
2022-08-25T16:34:30.886Z,7.55
2022-08-25T16:37:36.344Z,7.65
2022-08-25T16:40:40.998Z,6.30
2022-08-25T16:43:44.533Z,6.07
2022-08-25T16:46:48.993Z,5.72
2022-08-25T16:49:52.936Z,5.50
2022-08-25T16:53:13.427Z,6.22
2022-08-25T16:56:15.429Z,5.93
2022-08-25T16:59:20.787Z,5.88
2022-08-25T17:02:22.904Z,5.97
2022-08-25T17:05:27.355Z,6.40
2022-08-25T17:08:30.383Z,5.13
2022-08-25T17:11:36.042Z,4.95
2022-08-25T17:14:38.173Z,5.75
2022-08-25T17:17:40.118Z,4.38
2022-08-25T17:20:45.649Z,5.38
2022-08-25T17:23:49.327Z,8.20
2022-08-25T17:26:53.375Z,6.15
2022-08-25T17:29:55.444Z,4.97
2022-08-25T17:32:59.842Z,4.72
2022-08-25T17:36:02.114Z,4.45
2022-08-25T17:39:05.438Z,4.03
2022-08-25T17:42:07.497Z,3.85
2022-08-25T17:45:10.692Z,3.28
2022-08-25T17:48:15.729Z,3.28
2022-08-25T17:51:20.743Z,3.88
2022-08-25T17:54:23.988Z,4.20
2022-08-25T17:57:27.060Z,4.07
2022-08-25T18:00:33.005Z,4.00
2022-08-25T18:03:36.667Z,4.20
2022-08-25T18:06:40.537Z,4.10
2022-08-25T18:09:42.486Z,4.25
2022-08-25T18:15:47.579Z,4.85
2022-08-25T18:18:54.451Z,4.10
2022-08-25T18:21:58.587Z,4.50
2022-08-25T18:25:05.589Z,4.53
2022-08-25T18:28:14.094Z,4.30
2022-08-25T18:31:24.935Z,4.50
2022-08-25T18:34:31.623Z,4.73
2022-08-25T18:37:54.345Z,5.10
2022-08-25T18:41:05.460Z,5.30
2022-08-25T18:44:11.215Z,4.75
2022-08-25T18:47:15.464Z,4.82
2022-08-25T18:50:28.886Z,4.40
2022-08-25T18:53:37.162Z,5.25
2022-08-25T18:56:43.794Z,5.20
2022-08-25T18:59:47.856Z,5.20
2022-08-25T19:02:55.267Z,5.40
2022-08-25T19:06:05.949Z,5.93
2022-08-25T19:09:08.471Z,5.88
2022-08-25T19:12:11.779Z,6.28
2022-08-25T19:15:32.457Z,6.15
2022-08-25T19:18:34.925Z,6.88
2022-08-25T19:21:42.696Z,6.70
2022-08-25T19:24:45.721Z,6.75
2022-08-25T19:27:49.745Z,6.88
2022-08-25T19:30:51.677Z,7.50
2022-08-25T19:33:56.697Z,7.63
2022-08-25T19:37:04.643Z,7.05
2022-08-25T19:40:12.791Z,7.45
2022-08-25T19:43:16.377Z,7.55
2022-08-25T19:46:20.534Z,7.63
2022-08-25T19:49:27.151Z,7.30
2022-08-25T19:52:34.996Z,8.10
2022-08-25T19:55:37.731Z,7.97
2022-08-25T20:01:44.259Z,7.35
2022-08-25T20:04:50.405Z,8.70
2022-08-25T20:07:54.797Z,8.00
2022-08-25T20:10:58.369Z,7.78
2022-08-25T20:14:03.912Z,8.13
2022-08-25T20:17:14.846Z,8.07
2022-08-25T20:20:32.262Z,7.97
2022-08-25T20:23:56.499Z,8.02
2022-08-25T20:27:00.438Z,7.70
2022-08-25T20:30:16.778Z,7.43
2022-08-25T20:33:22.993Z,8.25
2022-08-25T20:36:25.550Z,7.70
2022-08-25T20:39:27.562Z,7.70
2022-08-25T20:42:29.639Z,8.27
2022-08-25T20:48:34.396Z,7.43
2022-08-25T20:51:36.476Z,7.63
2022-08-25T20:54:40.471Z,7.70
2022-08-25T20:57:42.811Z,8.30
2022-08-25T21:00:46.067Z,7.63
2022-08-25T21:03:49.481Z,7.45
2022-08-25T21:06:51.572Z,7.35
2022-08-25T21:12:55.454Z,6.97
2022-08-25T21:15:57.536Z,6.82
2022-08-25T21:22:01.840Z,7.10
2022-08-25T21:25:04.803Z,6.80
2022-08-25T21:28:06.772Z,7.40
2022-08-25T21:31:10.271Z,6.82
2022-08-25T21:34:12.959Z,6.80
2022-08-25T21:37:14.902Z,6.88
2022-08-25T21:40:16.947Z,6.90
2022-08-25T21:46:24.162Z,6.50
2022-08-25T21:49:27.599Z,5.75
2022-08-25T21:52:30.147Z,6.13
2022-08-25T21:55:37.152Z,6.20
2022-08-25T21:58:49.185Z,6.10
2022-08-25T22:01:55.254Z,6.25
2022-08-25T22:04:58.115Z,5.97
2022-08-25T22:08:01.119Z,5.30
2022-08-25T22:11:07.934Z,6.00
2022-08-25T22:14:11.101Z,5.80
2022-08-25T22:17:48.229Z,5.78
2022-08-25T22:20:51.274Z,5.95
2022-08-25T22:23:55.933Z,6.30
2022-08-25T22:26:58.373Z,5.82
2022-08-25T22:30:00.733Z,5.53
2022-08-25T22:33:03.116Z,5.13
2022-08-25T22:36:21.989Z,5.63
2022-08-25T22:39:23.987Z,5.28
2022-08-25T22:42:27.238Z,5.22
2022-08-25T22:45:29.671Z,4.68
2022-08-25T22:48:32.119Z,4.80
2022-08-25T22:51:36.370Z,5.40
2022-08-25T22:54:38.711Z,5.43
2022-08-25T22:57:41.732Z,4.80
2022-08-25T23:00:43.733Z,5.20
2022-08-25T23:03:45.867Z,5.25
2022-08-25T23:06:49.737Z,5.22
2022-08-25T23:09:51.677Z,4.72
2022-08-25T23:12:53.616Z,4.75
2022-08-25T23:15:55.513Z,5.00
2022-08-25T23:18:57.536Z,4.82
2022-08-25T23:22:09.512Z,5.45
2022-08-25T23:28:15.618Z,4.70
2022-08-25T23:31:18.467Z,4.72
2022-08-25T23:34:20.726Z,4.35
2022-08-25T23:37:23.241Z,4.63
2022-08-25T23:40:25.279Z,4.70
2022-08-25T23:43:28.930Z,4.30
2022-08-25T23:46:32.203Z,4.43
2022-08-25T23:49:34.203Z,4.90
2022-08-25T23:52:36.566Z,4.65
2022-08-25T23:55:39.208Z,4.05
2022-08-25T23:58:53.309Z,4.15
